createdAt,value
2018-03-06T00:00:51.610Z,68.00
2018-03-06T00:03:19.815Z,70.07
2018-03-06T00:05:48.023Z,64.35
2018-03-06T00:08:15.467Z,68.28
2018-03-06T00:10:42.920Z,70.65
2018-03-06T00:13:10.360Z,66.15
2018-03-06T00:15:37.807Z,64.80
2018-03-06T00:18:05.238Z,63.47
2018-03-06T00:20:32.682Z,62.03
2018-03-06T00:23:00.890Z,61.35
2018-03-06T00:25:29.107Z,58.40
2018-03-06T00:27:56.547Z,56.83
2018-03-06T00:30:23.982Z,57.55
2018-03-06T00:32:51.423Z,59.67
2018-03-06T00:35:18.872Z,56.45
2018-03-06T00:37:46.320Z,56.67
2018-03-06T00:40:13.767Z,54.75
2018-03-06T00:42:41.203Z,54.73
2018-03-06T00:45:08.672Z,56.00
2018-03-06T00:47:36.115Z,54.75
2018-03-06T00:50:03.567Z,55.70
2018-03-06T00:52:31.009Z,54.70
2018-03-06T00:54:58.451Z,55.70
2018-03-06T00:57:25.912Z,56.22
2018-03-06T00:59:53.365Z,54.70
2018-03-06T01:02:20.801Z,56.80
2018-03-06T01:04:48.252Z,47.13
2018-03-06T01:07:16.511Z,42.97
2018-03-06T03:22:12.323Z,49.53
2018-03-06T03:24:39.768Z,51.90
2018-03-06T03:27:07.980Z,53.37
2018-03-06T03:29:35.419Z,51.67
2018-03-06T03:32:02.874Z,52.40
2018-03-06T03:34:30.307Z,51.05
2018-03-06T03:36:58.515Z,49.03
2018-03-06T03:39:25.951Z,50.45
2018-03-06T03:41:53.395Z,49.40
2018-03-06T03:44:20.835Z,49.45
2018-03-06T03:46:48.280Z,50.97
2018-03-06T03:49:15.719Z,51.10
2018-03-06T03:51:43.176Z,51.92
2018-03-06T03:54:11.383Z,47.35
2018-03-06T03:56:39.588Z,51.25
2018-03-06T03:59:07.039Z,50.23
2018-03-06T04:01:34.480Z,49.78
2018-03-06T04:04:01.935Z,49.08
2018-03-06T04:06:30.128Z,45.65
2018-03-06T04:08:58.350Z,48.50
2018-03-06T04:11:25.790Z,49.63
2018-03-06T04:13:53.264Z,47.77
2018-03-06T04:16:20.711Z,49.75
2018-03-06T04:18:48.160Z,48.58
2018-03-06T04:21:15.723Z,48.53
2018-03-06T04:23:43.172Z,49.80
2018-03-06T04:26:10.608Z,51.50
2018-03-06T04:28:38.826Z,51.13
2018-03-06T04:31:06.264Z,49.72
2018-03-06T04:33:33.711Z,51.90
2018-03-06T04:36:01.163Z,50.10
2018-03-06T04:38:28.616Z,49.38
2018-03-06T04:40:56.055Z,48.45
2018-03-06T04:43:23.500Z,48.00
2018-03-06T04:45:51.722Z,47.57
2018-03-06T04:48:19.164Z,52.75
2018-03-06T04:50:47.380Z,53.53
2018-03-06T04:53:14.828Z,49.92
2018-03-06T04:55:42.271Z,51.95
2018-03-06T04:58:09.711Z,52.67
2018-03-06T05:00:37.938Z,52.90
2018-03-06T05:03:05.411Z,51.33
2018-03-06T05:05:32.859Z,53.60
2018-03-06T05:08:00.300Z,52.90
2018-03-06T05:10:27.751Z,50.67
2018-03-06T05:12:55.200Z,50.97
2018-03-06T05:15:22.643Z,50.70
2018-03-06T05:17:50.083Z,52.65
2018-03-06T05:20:17.532Z,49.95
2018-03-06T05:22:44.978Z,51.92
2018-03-06T05:25:12.428Z,53.30
2018-03-06T05:27:39.874Z,50.50
2018-03-06T05:30:07.375Z,51.45
2018-03-06T05:32:35.580Z,51.53
2018-03-06T05:35:03.797Z,48.15
2018-03-06T05:37:31.242Z,49.22
2018-03-06T05:39:58.691Z,51.33
2018-03-06T05:42:26.135Z,47.25
2018-03-06T05:44:53.584Z,49.72
2018-03-06T05:47:21.019Z,52.00
2018-03-06T05:49:49.235Z,49.10
2018-03-06T05:52:16.671Z,49.05
2018-03-06T05:54:44.119Z,50.45
2018-03-06T05:57:11.568Z,50.20
2018-03-06T05:59:39.774Z,47.08
2018-03-06T06:02:07.215Z,48.47
2018-03-06T06:04:35.423Z,51.92
2018-03-06T06:07:03.635Z,50.78
2018-03-06T06:09:31.084Z,49.83
2018-03-06T06:11:58.527Z,53.53
2018-03-06T06:14:25.986Z,51.67
2018-03-06T06:16:53.440Z,52.65
2018-03-06T06:19:21.636Z,56.25
2018-03-06T06:21:49.849Z,53.20
2018-03-06T06:24:18.055Z,53.33
2018-03-06T06:26:45.506Z,50.22
2018-03-06T06:29:12.951Z,51.70
2018-03-06T06:31:40.405Z,54.20
2018-03-06T06:34:07.852Z,54.65
2018-03-06T06:36:35.315Z,54.00
2018-03-06T06:39:02.751Z,55.95
2018-03-06T06:41:30.200Z,54.13
2018-03-06T06:43:57.648Z,54.45
2018-03-06T06:46:25.092Z,53.03
2018-03-06T06:48:52.540Z,52.53
2018-03-06T06:51:19.982Z,53.60
2018-03-06T06:53:48.184Z,49.53
2018-03-06T06:56:16.396Z,51.88
2018-03-06T06:58:43.844Z,53.65
2018-03-06T07:01:12.822Z,50.12
2018-03-06T07:03:40.260Z,48.00
2018-03-06T07:06:08.468Z,51.17
2018-03-06T07:08:36.680Z,51.58
2018-03-06T07:11:04.123Z,50.40
2018-03-06T07:13:31.579Z,50.17
2018-03-06T07:15:59.024Z,50.50
2018-03-06T07:18:26.491Z,50.33
2018-03-06T07:20:54.701Z,51.97
2018-03-06T07:23:22.176Z,53.15
2018-03-06T07:25:50.388Z,51.28
2018-03-06T07:28:17.832Z,52.70
2018-03-06T07:30:46.044Z,49.17
2018-03-06T07:33:14.268Z,51.37
2018-03-06T07:35:41.706Z,53.40
2018-03-06T07:38:09.156Z,50.40
2018-03-06T07:40:36.588Z,51.57
2018-03-06T07:43:04.828Z,53.53
2018-03-06T07:45:32.268Z,56.00
2018-03-06T07:48:00.475Z,53.08
2018-03-06T07:50:27.916Z,51.03
2018-03-06T07:52:55.373Z,54.08
2018-03-06T07:55:22.818Z,54.08
2018-03-06T07:57:51.029Z,56.83
2018-03-06T08:00:18.740Z,56.55
2018-03-06T08:02:46.187Z,54.95
2018-03-06T08:05:14.398Z,55.30
2018-03-06T08:07:42.611Z,52.70
2018-03-06T08:10:10.047Z,55.35
2018-03-06T08:12:37.490Z,54.70
2018-03-06T08:15:04.943Z,56.63
2018-03-06T08:17:33.179Z,53.47
2018-03-06T08:20:00.614Z,53.17
2018-03-06T08:22:28.068Z,54.58
2018-03-06T08:24:55.503Z,55.47
2018-03-06T08:27:23.715Z,55.42
2018-03-06T08:29:51.152Z,50.90
2018-03-06T08:32:18.619Z,54.20
2018-03-06T08:34:46.068Z,54.45
2018-03-06T08:37:13.524Z,55.20
2018-03-06T08:39:41.748Z,57.03
2018-03-06T08:42:09.194Z,54.08
2018-03-06T08:44:37.405Z,57.22
2018-03-06T08:47:05.616Z,57.30
2018-03-06T08:49:33.069Z,56.25
2018-03-06T08:52:01.295Z,52.88
2018-03-06T08:54:28.752Z,55.38
2018-03-06T08:56:56.191Z,55.87
2018-03-06T08:59:23.647Z,56.65
2018-03-06T09:01:51.094Z,54.55
2018-03-06T09:04:18.548Z,56.03
2018-03-06T09:06:46.794Z,57.75
2018-03-06T09:09:15.045Z,58.47
2018-03-06T09:11:43.267Z,56.15
2018-03-06T09:14:10.716Z,59.20
2018-03-06T09:16:38.156Z,59.13
2018-03-06T09:19:06.383Z,56.88
2018-03-06T09:21:33.855Z,58.47
2018-03-06T09:24:02.074Z,54.97
2018-03-06T09:26:30.288Z,58.83
2018-03-06T09:28:57.739Z,59.22
2018-03-06T09:31:25.960Z,60.67
2018-03-06T09:33:54.204Z,56.50
2018-03-06T09:36:21.643Z,61.97
2018-03-06T09:38:49.851Z,61.80
2018-03-06T09:41:17.314Z,62.95
2018-03-06T09:43:45.528Z,60.47
2018-03-06T09:46:12.975Z,60.90
2018-03-06T09:48:40.415Z,60.10
2018-03-06T09:51:07.872Z,60.85
2018-03-06T09:53:35.317Z,60.38
2018-03-06T09:56:02.773Z,61.97
2018-03-06T09:58:30.233Z,58.55
2018-03-06T10:00:57.664Z,60.38
2018-03-06T10:03:25.104Z,60.83
2018-03-06T10:05:52.563Z,60.88
2018-03-06T10:08:20.775Z,59.45
2018-03-06T10:10:48.223Z,60.67
2018-03-06T10:13:15.671Z,59.00
2018-03-06T10:15:43.135Z,59.22
2018-03-06T10:18:10.568Z,60.15
2018-03-06T10:20:38.779Z,61.70
2018-03-06T10:23:06.227Z,61.97
2018-03-06T10:25:33.663Z,57.58
2018-03-06T10:28:01.885Z,59.88
2018-03-06T10:30:29.327Z,64.82
2018-03-06T10:32:56.784Z,62.97
2018-03-06T10:35:24.223Z,61.60
2018-03-06T10:37:51.671Z,62.40
2018-03-06T10:40:19.123Z,63.08
2018-03-06T10:42:46.567Z,64.90
2018-03-06T10:45:14.010Z,69.23
2018-03-06T10:47:41.839Z,65.05
2018-03-06T10:50:09.323Z,65.37
2018-03-06T10:52:36.779Z,61.92
2018-03-06T10:55:04.220Z,64.05
2018-03-06T10:57:31.667Z,64.80
2018-03-06T10:59:59.119Z,64.10
2018-03-06T11:02:31.470Z,67.07
2018-03-06T11:05:07.653Z,64.80
2018-03-06T11:07:35.135Z,63.35
2018-03-06T11:10:02.578Z,64.07
2018-03-06T11:12:30.032Z,63.33
2018-03-06T11:14:57.468Z,63.63
2018-03-06T11:17:25.672Z,64.45
2018-03-06T11:19:53.888Z,64.70
2018-03-06T11:22:21.344Z,63.72
2018-03-06T11:24:48.791Z,64.32
2018-03-06T11:27:17.047Z,64.60
2018-03-06T11:29:44.502Z,63.10
2018-03-06T11:32:11.947Z,62.78
2018-03-06T11:34:39.411Z,62.50
2018-03-06T11:37:06.860Z,64.15
2018-03-06T11:39:34.310Z,64.15
2018-03-06T11:42:02.515Z,62.25
2018-03-06T11:44:30.731Z,62.70
2018-03-06T11:46:58.168Z,62.17
2018-03-06T11:49:25.631Z,60.85
2018-03-06T11:51:53.074Z,63.42
2018-03-06T11:54:20.526Z,61.30
2018-03-06T11:56:48.010Z,59.88
2018-03-06T11:59:15.420Z,58.92
2018-03-06T12:01:42.863Z,58.03
2018-03-06T12:04:10.316Z,59.10
2018-03-06T12:06:37.756Z,63.53
2018-03-06T12:09:05.216Z,57.60
2018-03-06T12:11:32.668Z,57.83
2018-03-06T12:14:00.232Z,57.97
2018-03-06T12:16:27.678Z,58.03
2018-03-06T12:18:55.884Z,56.88
2018-03-06T12:21:24.098Z,56.45
2018-03-06T12:23:51.604Z,56.17
2018-03-06T12:26:19.053Z,59.58
2018-03-06T12:28:47.260Z,56.90
2018-03-06T12:31:14.706Z,56.83
2018-03-06T12:33:42.151Z,57.08
2018-03-06T12:36:09.609Z,56.72
2018-03-06T12:38:37.040Z,57.30
2018-03-06T12:41:04.496Z,58.08
2018-03-06T12:43:31.936Z,59.45
2018-03-06T12:45:59.384Z,59.03
2018-03-06T12:48:26.835Z,59.78
2018-03-06T12:50:54.290Z,59.00
2018-03-06T12:53:21.731Z,60.97
2018-03-06T12:55:49.237Z,58.78
2018-03-06T12:58:17.448Z,61.45
2018-03-06T13:00:44.896Z,56.88
2018-03-06T13:03:12.340Z,58.70
2018-03-06T13:05:40.560Z,58.80
2018-03-06T13:08:08.015Z,61.95
2018-03-06T13:10:35.464Z,61.33
2018-03-06T13:13:02.911Z,59.67
2018-03-06T13:15:30.363Z,58.65
2018-03-06T13:17:57.807Z,62.42
2018-03-06T13:20:26.016Z,59.33
2018-03-06T13:22:54.223Z,61.47
2018-03-06T13:25:21.670Z,61.33
2018-03-06T13:27:49.108Z,59.20
2018-03-06T13:30:16.553Z,58.35
2018-03-06T13:32:44.764Z,57.83
2018-03-06T13:35:12.200Z,57.17
2018-03-06T13:37:39.647Z,57.10
2018-03-06T13:40:07.101Z,58.90
2018-03-06T13:42:35.303Z,55.20
2018-03-06T13:45:03.507Z,56.33
2018-03-06T13:47:31.284Z,54.60
2018-03-06T13:49:59.489Z,58.72
2018-03-06T13:52:27.700Z,57.88
2018-03-06T13:54:55.140Z,57.40
2018-03-06T13:57:22.588Z,58.75
2018-03-06T13:59:50.036Z,56.88
2018-03-06T14:02:18.247Z,56.28
2018-03-06T14:04:45.688Z,56.97
2018-03-06T14:07:13.145Z,57.85
2018-03-06T14:09:40.595Z,58.75
2018-03-06T14:12:08.059Z,59.03
2018-03-06T14:14:36.264Z,59.95
2018-03-06T14:17:03.785Z,60.70
2018-03-06T14:19:32.005Z,61.37
2018-03-06T14:21:59.489Z,59.17
2018-03-06T14:24:26.949Z,60.72
2018-03-06T14:26:54.389Z,60.55
2018-03-06T14:29:22.609Z,60.90
2018-03-06T14:31:50.066Z,61.85
2018-03-06T14:34:18.289Z,59.40
2018-03-06T14:36:45.741Z,61.53
2018-03-06T14:39:13.974Z,61.00
2018-03-06T14:41:41.430Z,62.15
2018-03-06T14:44:08.904Z,62.53
2018-03-06T14:46:36.349Z,62.00
2018-03-06T14:49:03.808Z,60.75
2018-03-06T14:51:31.258Z,62.05
2018-03-06T14:53:58.724Z,62.22
2018-03-06T14:56:26.936Z,60.33
2018-03-06T14:58:54.385Z,62.33
2018-03-06T15:01:21.834Z,58.95
2018-03-06T15:03:49.301Z,62.50
2018-03-06T15:06:16.747Z,62.70
2018-03-06T15:08:44.978Z,67.05
2018-03-06T15:11:12.421Z,65.10
2018-03-06T15:13:40.636Z,67.70
2018-03-06T15:16:08.088Z,67.95
2018-03-06T15:18:35.547Z,66.53
2018-03-06T15:21:02.999Z,68.15
2018-03-06T15:23:30.453Z,67.78
2018-03-06T15:25:58.681Z,69.55
2018-03-06T15:28:26.142Z,68.55
2018-03-06T15:30:53.592Z,64.37
2018-03-06T15:33:21.060Z,66.97
2018-03-06T15:35:48.506Z,68.12
2018-03-06T15:38:15.968Z,67.78
2018-03-06T15:40:43.418Z,69.40
2018-03-06T15:43:10.880Z,70.07
2018-03-06T15:45:38.322Z,70.97
2018-03-06T15:48:05.783Z,64.87
2018-03-06T15:50:33.238Z,64.05
2018-03-06T15:53:00.695Z,65.68
2018-03-06T15:55:28.147Z,62.50
2018-03-06T15:57:55.610Z,68.32
2018-03-06T16:00:23.825Z,66.60
2018-03-06T16:02:51.279Z,66.65
2018-03-06T16:05:19.495Z,65.82
2018-03-06T16:07:46.952Z,67.07
2018-03-06T16:10:15.186Z,64.60
2018-03-06T16:12:42.639Z,65.65
2018-03-06T16:15:10.856Z,64.23
2018-03-06T16:17:38.306Z,67.97
2018-03-06T16:20:05.763Z,69.93
2018-03-06T16:22:33.969Z,70.37
2018-03-06T16:25:01.421Z,71.40
2018-03-06T16:27:28.879Z,64.03
2018-03-06T16:29:56.335Z,64.22
2018-03-06T16:32:24.544Z,63.10
2018-03-06T16:34:52.771Z,62.10
2018-03-06T16:37:20.220Z,61.92
2018-03-06T16:39:48.465Z,62.00
2018-03-06T16:42:15.900Z,59.85
2018-03-06T16:44:44.127Z,56.70
2018-03-06T16:47:11.567Z,59.03
2018-03-06T16:49:39.787Z,62.47
2018-03-06T16:52:07.239Z,59.55
2018-03-06T16:54:34.706Z,57.00
2018-03-06T16:57:02.144Z,59.17
2018-03-06T16:59:29.604Z,54.42
2018-03-06T17:01:57.820Z,55.38
2018-03-06T17:04:25.286Z,59.13
2018-03-06T17:06:53.503Z,58.23
2018-03-06T17:09:20.965Z,59.28
2018-03-06T17:11:49.189Z,59.42
2018-03-06T17:14:16.655Z,57.20
2018-03-06T17:16:44.154Z,55.25
2018-03-06T17:19:12.321Z,57.45
2018-03-06T17:21:40.552Z,60.70
2018-03-06T17:24:08.012Z,56.30
2018-03-06T17:26:35.456Z,55.92
2018-03-06T17:29:02.913Z,56.92
2018-03-06T17:31:30.371Z,61.42
2018-03-06T17:33:57.843Z,61.50
2018-03-06T17:36:25.308Z,61.72
2018-03-06T17:38:53.540Z,56.75
2018-03-06T17:41:20.991Z,52.97
2018-03-06T17:43:49.268Z,56.63
2018-03-06T17:46:16.676Z,55.23
2018-03-06T17:48:44.135Z,68.60
2018-03-06T17:51:12.360Z,88.75
2018-03-06T17:53:39.812Z,65.55
2018-03-06T17:56:07.260Z,66.00
2018-03-06T17:58:34.717Z,64.78
2018-03-06T18:01:02.160Z,64.00
2018-03-06T18:03:30.389Z,84.33
2018-03-06T18:05:57.848Z,68.15
2018-03-06T18:08:26.059Z,67.18
2018-03-06T18:10:53.512Z,67.85
2018-03-06T18:13:20.949Z,65.77
2018-03-06T18:15:48.413Z,63.87
2018-03-06T18:18:15.862Z,66.03
2018-03-06T18:20:44.078Z,64.78
2018-03-06T18:23:11.515Z,63.57
2018-03-06T18:25:39.003Z,63.53
2018-03-06T18:28:06.439Z,64.43
2018-03-06T18:30:33.895Z,63.33
2018-03-06T18:33:01.348Z,62.75
2018-03-06T18:35:28.806Z,62.90
2018-03-06T18:37:57.012Z,63.73
2018-03-06T18:40:24.477Z,62.75
2018-03-06T18:42:51.926Z,65.75
2018-03-06T18:45:19.386Z,65.43
2018-03-06T18:47:47.592Z,63.35
2018-03-06T18:50:27.676Z,72.00
2018-03-06T18:52:55.409Z,84.00
2018-03-06T18:55:22.868Z,79.35
2018-03-06T18:57:50.312Z,65.60
2018-03-06T19:03:45.775Z,63.40
2018-03-06T19:06:29.990Z,66.07
2018-03-06T19:08:57.436Z,62.90
2018-03-06T19:11:24.899Z,64.60
2018-03-06T19:13:52.350Z,62.95
2018-03-06T19:16:19.795Z,60.08
2018-03-06T19:18:48.000Z,58.07
2018-03-06T19:21:16.217Z,62.38
2018-03-06T19:23:43.666Z,61.63
2018-03-06T19:26:11.197Z,67.80
2018-03-06T19:28:38.644Z,74.20
2018-03-06T19:31:06.939Z,76.85
2018-03-06T19:33:35.149Z,77.95
2018-03-06T19:36:03.388Z,73.03
2018-03-06T19:38:30.831Z,67.60
2018-03-06T19:40:58.295Z,70.28
2018-03-06T19:43:25.748Z,63.55
2018-03-06T19:45:53.200Z,59.92
2018-03-06T19:48:20.651Z,62.03
2018-03-06T19:50:48.860Z,56.88
2018-03-06T19:53:16.315Z,61.70
2018-03-06T19:55:44.584Z,108.05
2018-03-06T19:58:12.791Z,93.57
2018-03-06T20:00:40.243Z,66.20
2018-03-06T20:03:07.706Z,66.97
2018-03-06T20:05:35.152Z,52.97
2018-03-06T20:08:03.360Z,55.25
2018-03-06T20:10:31.580Z,57.07
2018-03-06T20:12:59.039Z,59.35
2018-03-06T20:15:27.259Z,54.30
2018-03-06T20:17:55.487Z,55.65
2018-03-06T20:20:22.962Z,59.35
2018-03-06T20:22:50.425Z,66.57
2018-03-06T20:25:23.493Z,68.57
2018-03-06T20:27:50.954Z,57.85
2018-03-06T20:30:24.177Z,54.90
2018-03-06T20:32:57.253Z,56.40
2018-03-06T20:35:24.719Z,53.15
2018-03-06T20:37:52.928Z,48.60
2018-03-06T20:40:26.007Z,52.95
2018-03-06T20:42:53.455Z,54.35
2018-03-06T20:45:20.895Z,61.40
2018-03-06T20:47:48.345Z,55.78
2018-03-06T20:50:15.783Z,56.45
2018-03-06T20:52:48.947Z,52.90
2018-03-06T20:55:16.391Z,54.40
2018-03-06T20:57:43.839Z,51.65
2018-03-06T21:00:11.305Z,52.47
2018-03-06T21:02:39.540Z,51.88
2018-03-06T21:05:06.976Z,50.80
2018-03-06T21:07:35.187Z,53.57
2018-03-06T21:10:02.637Z,59.10
2018-03-06T21:12:30.093Z,55.28
2018-03-06T21:14:57.602Z,59.25
2018-03-06T21:17:25.064Z,56.58
2018-03-06T21:19:52.507Z,54.60
2018-03-06T21:22:19.956Z,56.67
2018-03-06T21:24:48.168Z,60.22
2018-03-06T21:27:15.627Z,62.95
2018-03-06T21:29:43.081Z,59.40
2018-03-06T21:32:10.535Z,59.20
2018-03-06T21:34:37.977Z,55.53
2018-03-06T21:37:06.196Z,56.08
2018-03-06T21:39:33.644Z,54.03
2018-03-06T21:42:01.122Z,53.70
2018-03-06T21:44:28.560Z,52.75
2018-03-06T21:46:56.011Z,51.90
2018-03-06T21:49:24.220Z,52.53
2018-03-06T21:51:51.693Z,53.05
2018-03-06T21:54:19.906Z,57.75
2018-03-06T21:56:47.368Z,55.80
2018-03-06T21:59:14.796Z,54.38
2018-03-06T22:01:42.235Z,57.92
2018-03-06T22:04:09.691Z,52.42
2018-03-06T22:06:37.896Z,50.72
2018-03-06T22:09:06.111Z,53.28
2018-03-06T22:11:33.548Z,56.45
2018-03-06T22:14:00.996Z,56.70
2018-03-06T22:16:28.444Z,56.10
2018-03-06T22:18:56.670Z,56.30
2018-03-06T22:21:24.107Z,58.45
2018-03-06T22:23:52.328Z,60.10
2018-03-06T22:26:20.536Z,59.15
2018-03-06T22:28:48.008Z,53.72
2018-03-06T22:31:15.448Z,55.45
2018-03-06T22:33:42.911Z,57.00
2018-03-06T22:36:10.368Z,53.70
2018-03-06T22:38:37.816Z,55.67
2018-03-06T22:41:06.028Z,56.03
2018-03-06T22:43:33.472Z,59.00
2018-03-06T22:46:01.700Z,60.17
2018-03-06T22:48:29.927Z,57.25
2018-03-06T22:50:57.374Z,58.58
2018-03-06T22:53:25.578Z,56.47
2018-03-06T22:55:53.800Z,56.45
2018-03-06T22:58:21.241Z,56.15
2018-03-06T23:00:48.695Z,56.72
2018-03-06T23:03:16.146Z,58.50
2018-03-06T23:05:43.604Z,58.45
2018-03-06T23:08:11.827Z,56.35
2018-03-06T23:10:39.276Z,64.75
2018-03-06T23:13:07.488Z,58.50
2018-03-06T23:15:34.942Z,55.60
2018-03-06T23:18:02.391Z,55.60
2018-03-06T23:20:29.841Z,57.85
2018-03-06T23:22:57.292Z,57.65
2018-03-06T23:25:25.520Z,60.75
2018-03-06T23:27:52.973Z,57.10
2018-03-06T23:30:21.196Z,56.58
2018-03-06T23:32:48.654Z,55.70
2018-03-06T23:35:16.872Z,56.40
2018-03-06T23:37:44.327Z,53.20
2018-03-06T23:40:12.539Z,57.40
2018-03-06T23:42:40.747Z,55.70
2018-03-06T23:45:08.216Z,59.05
2018-03-06T23:47:36.436Z,58.03
2018-03-06T23:50:03.886Z,59.33
2018-03-06T23:52:32.103Z,54.00
2018-03-06T23:55:00.318Z,56.83
2018-03-06T23:57:27.765Z,57.40
2018-03-06T23:59:55.982Z,52.90
